createdAt,value
2018-01-02T00:00:26.655Z,8.50
2018-01-02T00:02:55.020Z,11.50
2018-01-02T00:05:23.369Z,12.53
2018-01-02T00:07:51.813Z,6.13
2018-01-02T00:10:20.212Z,13.30
2018-01-02T00:12:48.560Z,9.07
2018-01-02T00:15:16.968Z,9.27
2018-01-02T00:17:45.361Z,17.33
2018-01-02T00:20:13.741Z,11.63
2018-01-02T00:22:42.164Z,6.90
2018-01-02T00:25:10.588Z,3.80
2018-01-02T00:27:39.850Z,7.13
2018-01-02T00:30:08.229Z,6.20
2018-01-02T00:32:36.633Z,4.57
2018-01-02T00:35:05.034Z,5.23
2018-01-02T00:37:33.396Z,8.27
2018-01-02T00:40:01.780Z,7.90
2018-01-02T00:42:30.119Z,9.03
2018-01-02T00:44:58.472Z,3.87
2018-01-02T00:47:26.872Z,4.83
2018-01-02T00:49:55.280Z,8.03
2018-01-02T00:52:23.660Z,5.87
2018-01-02T00:54:52.007Z,4.50
2018-01-02T00:57:21.270Z,5.87
2018-01-02T00:59:49.620Z,6.70
2018-01-02T01:02:17.981Z,5.00
2018-01-02T01:04:46.326Z,6.50
2018-01-02T01:07:15.164Z,7.40
2018-01-02T01:09:43.527Z,4.70
2018-01-02T01:12:11.907Z,3.73
2018-01-02T01:14:40.259Z,7.80
2018-01-02T01:17:08.605Z,7.67
2018-01-02T01:19:37.028Z,4.77
2018-01-02T01:22:05.433Z,7.30
2018-01-02T01:24:33.782Z,8.83
2018-01-02T01:27:02.176Z,8.57
2018-01-02T01:29:30.573Z,9.93
2018-01-02T01:31:58.954Z,11.33
2018-01-02T01:34:27.308Z,8.30
2018-01-02T01:36:55.656Z,6.93
2018-01-02T01:39:24.400Z,8.50
2018-01-02T01:41:52.753Z,16.53
2018-01-02T01:44:21.155Z,5.97
2018-01-02T01:46:49.535Z,5.73
2018-01-02T01:49:18.190Z,4.30
2018-01-02T01:51:46.597Z,7.60
2018-01-02T01:54:14.948Z,8.43
2018-01-02T01:56:43.354Z,13.67
2018-01-02T01:59:11.720Z,9.33
2018-01-02T02:01:40.075Z,8.83
2018-01-02T02:04:08.456Z,11.30
2018-01-02T02:06:36.796Z,5.30
2018-01-02T02:09:05.136Z,6.10
2018-01-02T02:11:33.493Z,3.17
2018-01-02T02:14:01.896Z,12.23
2018-01-02T02:16:30.246Z,9.93
2018-01-02T02:18:58.596Z,4.70
2018-01-02T02:21:27.340Z,9.43
2018-01-02T02:23:55.728Z,10.20
2018-01-02T02:26:24.091Z,5.50
2018-01-02T02:28:52.456Z,5.63
2018-01-02T02:31:20.813Z,3.70
2018-01-02T02:33:49.554Z,19.13
2018-01-02T02:36:17.915Z,3.60
2018-01-02T02:38:46.273Z,8.90
2018-01-02T02:41:14.621Z,6.60
2018-01-02T02:43:43.466Z,8.37
2018-01-02T02:46:11.821Z,14.57
2018-01-02T02:48:40.160Z,5.43
2018-01-02T02:51:08.520Z,8.67
2018-01-02T02:53:36.865Z,15.83
2018-01-02T02:56:05.214Z,8.73
2018-01-02T02:58:33.558Z,11.87
2018-01-02T03:01:02.025Z,16.10
2018-01-02T03:03:30.368Z,7.77
2018-01-02T03:05:58.729Z,7.30
2018-01-02T03:08:27.315Z,14.03
2018-01-02T03:10:55.731Z,5.77
2018-01-02T03:13:24.212Z,14.03
2018-01-02T03:15:52.552Z,11.80
2018-01-02T03:18:20.896Z,11.67
2018-01-02T03:20:49.277Z,16.93
2018-01-02T03:23:17.760Z,15.43
2018-01-02T03:25:46.104Z,14.40
2018-01-02T03:28:14.439Z,15.63
2018-01-02T03:30:42.805Z,11.27
2018-01-02T03:33:11.580Z,15.70
2018-01-02T03:35:40.143Z,14.07
2018-01-02T03:38:08.574Z,11.67
2018-01-02T03:40:37.408Z,11.53
2018-01-02T03:43:05.891Z,13.20
2018-01-02T03:45:34.237Z,10.57
2018-01-02T03:48:02.576Z,12.57
2018-01-02T03:50:31.135Z,14.43
2018-01-02T03:52:59.485Z,11.43
2018-01-02T03:55:28.023Z,21.70
2018-01-02T03:57:56.359Z,14.50
2018-01-02T04:00:24.702Z,21.63
2018-01-02T04:02:53.071Z,28.93
2018-01-02T04:05:21.884Z,30.83
2018-01-02T04:07:50.284Z,15.87
2018-01-02T04:10:18.644Z,12.17
2018-01-02T04:12:47.059Z,9.13
2018-01-02T04:15:15.413Z,15.70
2018-01-02T04:17:44.511Z,20.07
2018-01-02T04:20:12.895Z,14.00
2018-01-02T04:22:41.280Z,14.20
2018-01-02T04:25:09.729Z,23.60
2018-01-02T04:27:38.068Z,11.50
2018-01-02T04:30:06.423Z,23.93
2018-01-02T04:32:34.783Z,29.53
2018-01-02T04:35:03.888Z,9.27
2018-01-02T04:37:32.267Z,13.63
2018-01-02T04:40:00.617Z,17.10
2018-01-02T04:42:28.988Z,15.20
2018-01-02T04:44:57.334Z,27.03
2018-01-02T04:47:26.092Z,32.70
2018-01-02T04:49:54.476Z,28.60
2018-01-02T04:52:22.849Z,21.30
2018-01-02T04:54:51.204Z,28.77
2018-01-02T04:57:19.578Z,24.80
2018-01-02T04:59:47.932Z,20.17
2018-01-02T05:02:16.683Z,22.97
2018-01-02T05:04:45.038Z,26.17
2018-01-02T05:07:13.435Z,25.33
2018-01-02T05:09:41.791Z,19.60
2018-01-02T05:12:10.149Z,26.30
2018-01-02T05:14:38.566Z,23.60
2018-01-02T05:17:06.947Z,24.57
2018-01-02T05:19:35.327Z,28.13
2018-01-02T05:22:04.607Z,22.07
2018-01-02T05:24:32.961Z,24.57
2018-01-02T05:27:01.507Z,30.93
2018-01-02T05:29:29.863Z,21.23
2018-01-02T05:31:58.233Z,27.30
2018-01-02T05:34:26.621Z,50.13
2018-01-02T05:36:54.974Z,30.93
2018-01-02T05:39:23.987Z,34.40
2018-01-02T05:41:52.361Z,32.43
2018-01-02T05:44:20.711Z,36.30
2018-01-02T05:46:49.079Z,35.10
2018-01-02T05:49:17.843Z,47.73
2018-01-02T05:51:46.288Z,32.53
2018-01-02T05:54:14.644Z,41.70
2018-01-02T05:56:43.052Z,38.77
2018-01-02T05:59:11.420Z,49.93
2018-01-02T06:01:39.769Z,29.73
2018-01-02T06:04:08.116Z,32.57
2018-01-02T06:06:36.488Z,35.60
2018-01-02T06:09:04.854Z,28.13
2018-01-02T06:11:33.215Z,20.40
2018-01-02T06:14:01.568Z,23.20
2018-01-02T06:16:29.936Z,33.73
2018-01-02T06:18:58.722Z,37.27
2018-01-02T06:21:27.490Z,34.90
2018-01-02T06:23:55.938Z,27.73
2018-01-02T06:26:24.283Z,43.40
2018-01-02T06:28:53.349Z,32.90
2018-01-02T06:31:21.784Z,32.90
2018-01-02T06:33:50.152Z,34.93
2018-01-02T06:36:18.564Z,52.10
2018-01-02T06:38:46.918Z,38.37
2018-01-02T06:41:15.288Z,36.83
2018-01-02T06:43:43.656Z,45.70
2018-01-02T06:46:12.105Z,50.03
2018-01-02T06:48:40.954Z,35.97
2018-01-02T06:51:09.332Z,37.73
2018-01-02T06:53:37.683Z,25.27
2018-01-02T06:56:06.042Z,30.67
2018-01-02T06:58:35.104Z,33.83
2018-01-02T07:01:03.566Z,27.40
2018-01-02T07:03:31.939Z,30.77
2018-01-02T07:06:00.289Z,43.00
2018-01-02T07:08:29.496Z,24.63
2018-01-02T07:10:58.005Z,21.07
2018-01-02T07:13:26.372Z,17.87
2018-01-02T07:15:54.756Z,24.43
2018-01-02T07:18:23.104Z,18.03
2018-01-02T07:20:51.512Z,18.83
2018-01-02T07:23:19.883Z,9.27
2018-01-02T07:25:48.287Z,7.87
2018-01-02T07:28:16.627Z,7.53
2018-01-02T07:30:45.036Z,8.87
2018-01-02T07:33:13.381Z,9.17
2018-01-02T07:35:41.734Z,8.93
2018-01-02T07:38:10.471Z,14.40
2018-01-02T07:40:38.831Z,12.57
2018-01-02T07:43:07.196Z,12.67
2018-01-02T07:45:35.586Z,8.80
2018-01-02T07:48:03.934Z,10.13
2018-01-02T07:50:32.680Z,9.20
2018-01-02T07:53:01.027Z,7.57
2018-01-02T07:55:29.378Z,12.87
2018-01-02T07:57:58.224Z,9.10
2018-01-02T08:00:26.585Z,9.57
2018-01-02T08:02:54.984Z,7.07
2018-01-02T08:05:23.355Z,10.60
2018-01-02T08:07:51.701Z,10.43
2018-01-02T08:10:20.109Z,14.10
2018-01-02T08:12:48.456Z,20.47
2018-01-02T08:15:16.842Z,16.13
2018-01-02T08:17:45.189Z,17.97
2018-01-02T08:20:14.036Z,16.93
2018-01-02T08:22:42.395Z,13.33
2018-01-02T08:25:10.765Z,14.50
2018-01-02T08:27:39.117Z,22.50
2018-01-02T08:30:07.960Z,14.97
2018-01-02T08:32:36.308Z,11.30
2018-01-02T08:35:04.668Z,8.83
2018-01-02T08:37:33.416Z,11.37
2018-01-02T08:40:01.760Z,13.67
2018-01-02T08:42:30.159Z,9.60
2018-01-02T08:44:58.500Z,14.33
2018-01-02T08:47:26.927Z,15.10
2018-01-02T08:49:55.283Z,15.70
2018-01-02T08:52:23.634Z,11.03
2018-01-02T08:54:52.367Z,10.20
2018-01-02T08:57:20.727Z,11.13
2018-01-02T08:59:49.076Z,18.40
2018-01-02T09:02:17.487Z,11.73
2018-01-02T09:04:45.851Z,9.47
2018-01-02T09:07:14.206Z,9.37
2018-01-02T09:09:42.576Z,12.47
2018-01-02T09:12:16.902Z,8.33
2018-01-02T09:14:49.447Z,8.17
2018-01-02T09:17:17.787Z,8.27
2018-01-02T09:19:46.188Z,11.43
2018-01-02T09:22:14.568Z,6.93
2018-01-02T09:24:42.935Z,7.40
2018-01-02T09:27:11.295Z,10.30
2018-01-02T09:29:39.651Z,6.20
2018-01-02T09:32:08.383Z,7.13
2018-01-02T09:34:36.722Z,6.60
2018-01-02T09:37:05.083Z,6.20
2018-01-02T09:39:33.908Z,5.73
2018-01-02T09:42:02.308Z,10.93
2018-01-02T09:44:30.663Z,6.80
2018-01-02T09:46:59.060Z,6.40
2018-01-02T09:49:27.450Z,6.97
2018-01-02T09:51:55.799Z,6.30
2018-01-02T09:54:24.168Z,5.80
2018-01-02T09:56:52.584Z,6.83
2018-01-02T09:59:21.039Z,9.30
2018-01-02T10:01:49.387Z,13.10
2018-01-02T10:04:18.124Z,8.47
2018-01-02T10:06:46.468Z,9.07
2018-01-02T10:09:14.884Z,10.83
2018-01-02T10:11:43.263Z,10.83
2018-01-02T10:14:11.617Z,11.87
2018-01-02T10:16:39.973Z,12.40
2018-01-02T10:19:08.711Z,10.57
2018-01-02T10:21:37.086Z,11.13
2018-01-02T10:24:05.437Z,12.63
2018-01-02T10:26:33.850Z,12.90
2018-01-02T10:29:02.216Z,21.20
2018-01-02T10:31:30.604Z,15.47
2018-01-02T10:33:58.967Z,20.70
2018-01-02T10:36:27.363Z,36.57
2018-01-02T10:38:55.709Z,18.43
2018-01-02T10:41:24.195Z,19.93
2018-01-02T10:43:52.572Z,19.37
2018-01-02T10:46:20.923Z,24.87
2018-01-02T10:48:49.765Z,18.07
2018-01-02T10:51:18.132Z,18.87
2018-01-02T10:53:46.503Z,26.23
2018-01-02T10:56:14.915Z,22.23
2018-01-02T10:58:43.287Z,20.33
2018-01-02T11:04:05.824Z,19.23
2018-01-02T11:06:34.252Z,19.73
2018-01-02T11:09:02.616Z,21.37
2018-01-02T11:11:31.895Z,25.13
2018-01-02T11:14:00.280Z,26.63
2018-01-02T11:16:28.664Z,31.60
2018-01-02T11:18:57.040Z,22.93
2018-01-02T11:21:25.401Z,34.43
2018-01-02T11:23:53.762Z,36.27
2018-01-02T11:26:22.152Z,28.53
2018-01-02T11:28:50.518Z,36.17
2018-01-02T11:31:18.931Z,30.20
2018-01-02T11:33:47.324Z,31.60
2018-01-02T11:36:15.676Z,34.30
2018-01-02T11:38:44.034Z,22.90
2018-01-02T11:41:12.392Z,23.10
2018-01-02T11:43:41.296Z,25.17
2018-01-02T11:46:09.736Z,23.03
2018-01-02T11:48:38.195Z,23.80
2018-01-02T11:51:06.575Z,22.83
2018-01-02T11:53:35.059Z,29.97
2018-01-02T11:56:03.536Z,38.50
2018-01-02T11:58:31.893Z,28.77
2018-01-02T12:01:00.240Z,28.87
2018-01-02T12:03:29.005Z,30.10
2018-01-02T12:05:57.368Z,47.73
2018-01-02T12:08:25.743Z,34.43
2018-01-02T12:10:54.104Z,31.50
2018-01-02T12:13:22.526Z,45.13
2018-01-02T12:15:50.895Z,37.17
2018-01-02T12:18:19.268Z,36.73
2018-01-02T12:20:47.641Z,26.83
2018-01-02T12:23:15.999Z,26.47
2018-01-02T12:25:44.387Z,38.23
2018-01-02T12:28:12.747Z,31.30
2018-01-02T12:30:41.107Z,36.50
2018-01-02T12:33:09.932Z,32.03
2018-01-02T12:35:38.304Z,28.80
2018-01-02T12:38:06.671Z,34.13
2018-01-02T12:40:35.031Z,32.53
2018-01-02T12:43:03.404Z,29.97
2018-01-02T12:45:32.158Z,29.03
2018-01-02T12:48:00.507Z,25.27
2018-01-02T12:50:28.932Z,27.27
2018-01-02T12:52:57.288Z,31.40
2018-01-02T12:55:25.763Z,25.00
2018-01-02T12:57:54.572Z,29.17
2018-01-02T13:00:22.931Z,28.97
2018-01-02T13:02:51.309Z,23.33
2018-01-02T13:05:19.683Z,33.50
2018-01-02T13:07:48.185Z,18.33
2018-01-02T13:10:16.583Z,26.77
2018-01-02T13:12:44.923Z,18.67
2018-01-02T13:15:13.299Z,24.13
2018-01-02T13:17:41.666Z,18.23
2018-01-02T13:20:10.078Z,21.73
2018-01-02T13:22:38.441Z,25.67
2018-01-02T13:25:06.950Z,22.40
2018-01-02T13:27:35.814Z,15.50
2018-01-02T13:30:04.194Z,19.63
2018-01-02T13:32:32.561Z,18.13
2018-01-02T13:35:00.948Z,9.03
2018-01-02T13:37:29.304Z,19.13
2018-01-02T13:39:57.647Z,16.60
2018-01-02T13:42:26.407Z,23.27
2018-01-02T13:44:54.872Z,11.83
2018-01-02T13:47:23.253Z,19.73
2018-01-02T13:49:51.607Z,13.87
2018-01-02T13:52:19.961Z,17.93
2018-01-02T13:54:48.705Z,20.07
2018-01-02T13:57:17.176Z,17.47
2018-01-02T13:59:45.554Z,16.03
2018-01-02T14:02:13.911Z,16.13
2018-01-02T14:04:42.307Z,18.63
2018-01-02T14:07:10.667Z,14.60
2018-01-02T14:09:39.020Z,19.60
2018-01-02T14:12:07.847Z,14.60
2018-01-02T14:14:36.191Z,23.93
2018-01-02T14:17:04.552Z,17.40
2018-01-02T14:19:32.938Z,20.90
2018-01-02T14:22:01.771Z,24.67
2018-01-02T14:24:30.168Z,25.77
2018-01-02T14:26:58.627Z,11.83
2018-01-02T14:29:26.981Z,17.63
2018-01-02T14:31:55.332Z,12.10
2018-01-02T14:34:24.185Z,16.73
2018-01-02T14:36:52.533Z,16.70
2018-01-02T14:39:20.887Z,13.67
2018-01-02T14:41:49.627Z,15.73
2018-01-02T14:44:18.008Z,12.10
2018-01-02T14:46:46.364Z,18.47
2018-01-02T14:49:14.772Z,12.10
2018-01-02T14:51:43.119Z,14.80
2018-01-02T14:54:11.511Z,13.57
2018-01-02T14:56:39.873Z,9.37
2018-01-02T14:59:08.240Z,11.33
2018-01-02T15:01:36.665Z,9.77
2018-01-02T15:04:05.011Z,5.93
2018-01-02T15:06:33.408Z,24.67
2018-01-02T15:09:01.796Z,11.40
2018-01-02T15:11:30.154Z,11.10
2018-01-02T15:13:58.543Z,15.27
2018-01-02T15:16:26.901Z,8.57
2018-01-02T15:18:55.316Z,12.47
2018-01-02T15:21:23.856Z,16.23
2018-01-02T15:23:52.199Z,19.27
2018-01-02T15:26:20.569Z,21.80
2018-01-02T15:28:49.035Z,14.53
2018-01-02T15:31:17.401Z,17.27
2018-01-02T15:33:45.753Z,8.00
2018-01-02T15:36:14.204Z,17.23
2018-01-02T15:38:43.065Z,20.00
2018-01-02T15:41:11.444Z,6.40
2018-01-02T15:43:39.952Z,9.57
2018-01-02T15:46:08.709Z,5.77
2018-01-02T15:48:37.051Z,9.53
2018-01-02T15:51:05.464Z,5.80
2018-01-02T15:53:33.808Z,9.23
2018-01-02T15:56:02.279Z,8.77
2018-01-02T15:58:30.676Z,21.00
2018-01-02T16:00:59.026Z,18.87
2018-01-02T16:03:27.775Z,11.67
2018-01-02T16:05:56.150Z,12.10
2018-01-02T16:08:24.491Z,15.43
2018-01-02T16:10:52.891Z,23.60
2018-01-02T16:13:21.248Z,28.13
2018-01-02T16:15:49.620Z,18.23
2018-01-02T16:18:18.012Z,21.60
2018-01-02T16:20:46.359Z,21.17
2018-01-02T16:23:14.801Z,23.90
2018-01-02T16:25:43.155Z,29.33
2018-01-02T16:28:11.511Z,24.07
2018-01-02T16:30:39.916Z,33.23
2018-01-02T16:33:08.322Z,38.97
2018-01-02T16:35:36.704Z,19.67
2018-01-02T16:38:05.073Z,14.70
2018-01-02T16:40:33.484Z,23.20
2018-01-02T16:43:01.847Z,15.00
2018-01-02T16:45:30.227Z,26.73
2018-01-02T16:47:58.565Z,27.80
2018-01-02T16:50:27.067Z,16.43
2018-01-02T16:52:55.428Z,18.70
2018-01-02T16:55:23.795Z,13.03
2018-01-02T16:57:52.203Z,18.50
2018-01-02T17:00:20.523Z,15.33
2018-01-02T17:02:49.910Z,13.20
2018-01-02T17:05:18.315Z,7.93
2018-01-02T17:07:47.151Z,16.73
2018-01-02T17:10:15.513Z,19.03
2018-01-02T17:12:43.909Z,16.67
2018-01-02T17:15:12.255Z,19.33
2018-01-02T17:17:40.672Z,11.40
2018-01-02T17:20:09.046Z,8.60
2018-01-02T17:22:37.394Z,27.17
2018-01-02T17:25:05.810Z,8.63
2018-01-02T17:27:34.156Z,16.90
2018-01-02T17:30:02.536Z,20.63
2018-01-02T17:32:30.896Z,20.10
2018-01-02T17:34:59.307Z,13.60
2018-01-02T17:37:27.672Z,11.80
2018-01-02T17:39:56.025Z,12.73
2018-01-02T17:42:24.917Z,16.43
2018-01-02T17:44:53.667Z,20.53
2018-01-02T17:47:22.015Z,18.33
2018-01-02T17:49:50.362Z,9.40
2018-01-02T17:52:19.117Z,16.93
2018-01-02T17:54:47.464Z,9.20
2018-01-02T17:57:15.821Z,10.13
2018-01-02T17:59:44.169Z,11.60
2018-01-02T18:02:12.970Z,10.43
2018-01-02T18:04:41.840Z,10.37
2018-01-02T18:07:10.196Z,11.00
2018-01-02T18:09:38.564Z,14.27
2018-01-02T18:12:06.914Z,15.10
2018-01-02T18:14:35.282Z,16.13
2018-01-02T18:17:03.649Z,53.83
2018-01-02T18:19:33.205Z,19.07
2018-01-02T18:22:01.583Z,121.97
2018-01-02T18:24:29.962Z,82.63
2018-01-02T18:26:59.175Z,54.70
2018-01-02T18:29:27.551Z,27.70
2018-01-02T18:31:55.916Z,17.67
2018-01-02T18:34:24.396Z,19.37
2018-01-02T18:36:52.839Z,109.07
2018-01-02T18:39:21.164Z,43.97
2018-01-02T18:41:49.519Z,8.47
2018-01-02T18:44:17.875Z,13.60
2018-01-02T18:46:46.218Z,9.90
2018-01-02T18:49:14.753Z,20.33
2018-01-02T18:51:43.156Z,11.80
2018-01-02T18:54:11.523Z,14.33
2018-01-02T18:56:39.904Z,11.30
2018-01-02T18:59:08.260Z,15.03
2018-01-02T19:01:36.680Z,9.93
2018-01-02T19:04:05.044Z,9.03
2018-01-02T19:06:33.419Z,11.57
2018-01-02T19:09:01.801Z,17.20
2018-01-02T19:11:30.185Z,12.80
2018-01-02T19:13:58.546Z,22.33
2018-01-02T19:16:26.882Z,18.67
2018-01-02T19:18:55.772Z,10.03
2018-01-02T19:21:24.151Z,7.83
2018-01-02T19:23:52.992Z,13.53
2018-01-02T19:26:21.390Z,11.50
2018-01-02T19:28:49.870Z,12.87
2018-01-02T19:31:18.235Z,12.10
2018-01-02T19:33:46.632Z,16.50
2018-01-02T19:36:14.984Z,12.80
2018-01-02T19:38:43.340Z,10.87
2018-01-02T19:41:11.683Z,9.70
2018-01-02T19:43:40.040Z,13.97
2018-01-02T19:46:08.409Z,9.53
2018-01-02T19:48:36.771Z,13.43
2018-01-02T19:51:05.172Z,10.30
2018-01-02T19:53:33.537Z,10.47
2018-01-02T19:56:01.963Z,7.73
2018-01-02T19:58:30.726Z,7.43
2018-01-02T20:00:59.183Z,6.67
2018-01-02T20:03:27.536Z,8.27
2018-01-02T20:05:55.956Z,14.97
2018-01-02T20:08:24.308Z,7.63
2018-01-02T20:10:52.709Z,11.67
2018-01-02T20:13:21.107Z,7.67
2018-01-02T20:15:49.759Z,8.37
2018-01-02T20:18:23.751Z,19.73
2018-01-02T20:20:52.156Z,6.77
2018-01-02T20:23:20.535Z,7.43
2018-01-02T20:25:48.967Z,10.17
2018-01-02T20:28:17.703Z,9.70
2018-01-02T20:30:46.076Z,12.43
2018-01-02T20:33:14.460Z,8.73
2018-01-02T20:35:42.871Z,8.23
2018-01-02T20:38:11.291Z,8.17
2018-01-02T20:40:39.708Z,9.37
2018-01-02T20:43:08.123Z,7.57
2018-01-02T20:45:36.968Z,10.50
2018-01-02T20:48:05.336Z,9.57
2018-01-02T20:50:34.020Z,10.60
2018-01-02T20:53:02.416Z,21.17
2018-01-02T20:55:30.785Z,9.10
2018-01-02T20:57:59.171Z,11.27
2018-01-02T21:00:27.547Z,12.83
2018-01-02T21:02:55.905Z,7.33
2018-01-02T21:05:24.334Z,8.43
2018-01-02T21:07:52.746Z,11.87
2018-01-02T21:10:21.115Z,13.33
2018-01-02T21:12:49.463Z,11.83
2018-01-02T21:15:17.812Z,20.57
2018-01-02T21:17:46.166Z,15.27
2018-01-02T21:20:14.623Z,17.03
2018-01-02T21:22:43.384Z,15.93
2018-01-02T21:25:11.735Z,17.03
2018-01-02T21:27:40.141Z,14.00
2018-01-02T21:30:08.500Z,17.20
2018-01-02T21:32:36.892Z,14.53
2018-01-02T21:35:05.270Z,20.73
2018-01-02T21:37:33.648Z,14.80
2018-01-02T21:40:02.036Z,16.80
2018-01-02T21:42:30.418Z,20.43
2018-01-02T21:44:58.776Z,19.70
2018-01-02T21:47:27.156Z,10.37
2018-01-02T21:49:55.612Z,13.73
2018-01-02T21:52:24.027Z,25.10
2018-01-02T21:54:52.535Z,25.93
2018-01-02T21:57:20.987Z,25.60
2018-01-02T21:59:49.695Z,28.57
2018-01-02T22:02:18.038Z,36.50
2018-01-02T22:04:46.488Z,27.90
2018-01-02T22:07:15.597Z,30.20
2018-01-02T22:09:43.955Z,18.97
2018-01-02T22:12:12.375Z,18.73
2018-01-02T22:14:40.732Z,23.83
2018-01-02T22:17:09.131Z,15.20
2018-01-02T22:19:37.516Z,13.57
2018-01-02T22:22:05.909Z,16.93
2018-01-02T22:24:34.263Z,28.87
2018-01-02T22:27:02.624Z,20.87
2018-01-02T22:29:31.139Z,18.00
2018-01-02T22:31:59.513Z,18.47
2018-01-02T22:34:27.864Z,24.90
2018-01-02T22:36:56.235Z,17.90
2018-01-02T22:39:24.643Z,23.33
2018-01-02T22:41:53.139Z,16.70
2018-01-02T22:44:21.485Z,28.07
2018-01-02T22:46:49.885Z,21.47
2018-01-02T22:49:18.303Z,19.27
2018-01-02T22:51:47.111Z,20.33
2018-01-02T22:54:15.846Z,23.70
2018-01-02T22:56:44.210Z,24.60
2018-01-02T22:59:12.647Z,27.50
2018-01-02T23:01:41.078Z,31.53
2018-01-02T23:04:09.428Z,25.13
2018-01-02T23:06:37.774Z,22.17
2018-01-02T23:09:06.534Z,19.00
2018-01-02T23:11:34.923Z,29.00
2018-01-02T23:14:03.302Z,15.60
2018-01-02T23:16:31.669Z,18.80
2018-01-02T23:19:00.118Z,20.30
2018-01-02T23:21:28.525Z,23.23
2018-01-02T23:23:56.875Z,17.63
2018-01-02T23:26:25.244Z,18.30
2018-01-02T23:28:53.596Z,28.23
2018-01-02T23:31:22.445Z,21.57
2018-01-02T23:33:50.791Z,18.10
2018-01-02T23:36:19.147Z,19.67
2018-01-02T23:38:47.518Z,23.63
2018-01-02T23:41:15.959Z,16.10
2018-01-02T23:43:44.327Z,23.77
2018-01-02T23:46:12.679Z,20.37
2018-01-02T23:48:41.023Z,24.60
2018-01-02T23:51:09.468Z,25.93
2018-01-02T23:53:37.871Z,17.80
2018-01-02T23:56:06.335Z,22.13
2018-01-02T23:58:34.684Z,22.40
